Terminal Aerodrome Forecast
Issued by NWS

Home | Current Version | Previous Version | Text Only | Print | Product List | Glossary On
Versions: 1 2 3 4 5 6 7 8 9 10 11 12 13 14 15 16 17 18
354
FTUS43 KLSX 251013 AAB
TAFSUS
TAF AMD
KSUS 251013Z 2510/2606 VRB03KT 5SM BR FEW005
      TEMPO 2510/2512 1SM BR VV005
     FM251300 21006KT P6SM SCT050
     FM251900 23007KT P6SM VCTS BKN050CB
     FM260000 28007KT 3SM -SHRA VCTS OVC050CB
     FM260300 31008KT P6SM OVC060=

USA.gov is the U.S. government's official web portal to all federal, state and local government web resources and services.